Snow/Ice From: 16-12-2017 16:00 Until: 17-12-2017 16:00 warning for: Snow/Ice Level: Yellow info button

Although rather usual in this region, locally or potentially dangerous phenomena are expected. (such as local winds, summer thunderstorms, rising streams or high waves) Be aware and pay attention to the latest weather updates, especially if you carry out activities exposed to weather or close to a stream or shoreline. 


Meteo18 Weather Cam more information Meteo18 Weather Cam


Thunder radar more information blitzortung!


warning for Snow/Ice more information rain snow radar


Visit our other weather sites:

Template documentation
and downloads

And another site



Weather Underground History page Text

Daily Summary for July 24, 2016 Units:  Metric    English   Both
« Previous Day
Next Day »
Daily Weekly Monthly Yearly Custom
  High: Low: Average:
Temperature: 29.9 °C 15.6 °C 22.1 °C
Dew Point: 18.6 °C 13.6 °C 15 °C
Humidity: 91 % 40 % 67 %
Wind Speed: 4.8 km/h 0.0 km/h 0.4 km/h
Wind Gust: 12.9 km/h - -
Wind:- - ENE
Pressure: 1020.5 hPa 1018.5 hPa -
Precipitation: 0.0 mm    
Historical Graphs
 
 
Tabular Data for July 24, 2016
Time Temperature Dew Point Pressure Wind Wind Speed Wind Gust Humidity Rainfall Rate (Hourly)
00:02 18.2 °C 14.1 °C 1019.9 hPa Calm     77 % 0.0 mm
00:12 18.2 °C 14.3 °C 1020.2 hPa Calm     78 % 0.0 mm
00:17 18.1 °C 14.2 °C 1020.2 hPa Calm     78 % 0.0 mm
00:22 17.9 °C 14.0 °C 1020.2 hPa Calm     78 % 0.0 mm
00:27 17.7 °C 14.0 °C 1020.2 hPa Calm     79 % 0.0 mm
00:32 17.6 °C 13.9 °C 1020.2 hPa Calm     79 % 0.0 mm
00:37 17.6 °C 14.1 °C 1020.2 hPa Calm     80 % 0.0 mm
00:42 17.4 °C 14.1 °C 1020.2 hPa Calm     81 % 0.0 mm
00:47 17.4 °C 13.9 °C 1020.2 hPa Calm     80 % 0.0 mm
00:52 17.6 °C 14.1 °C 1020.2 hPa Calm     80 % 0.0 mm
00:57 17.7 °C 14.2 °C 1020.2 hPa Calm     80 % 0.0 mm
01:02 17.7 °C 14.2 °C 1020.2 hPa Calm     80 % 0.0 mm
01:12 17.6 °C 14.1 °C 1020.2 hPa Calm     80 % 0.0 mm
01:17 17.5 °C 14.0 °C 1020.2 hPa Calm     80 % 0.0 mm
01:22 17.4 °C 13.9 °C 1020.2 hPa Calm     80 % 0.0 mm
01:32 17.1 °C 14.0 °C 1020.2 hPa Calm     82 % 0.0 mm
01:37 16.9 °C 14.0 °C 1020.2 hPa Calm     83 % 0.0 mm
01:42 16.9 °C 14.0 °C 1020.2 hPa Calm     83 % 0.0 mm
01:52 17.0 °C 14.1 °C 1020.2 hPa Calm     83 % 0.0 mm
01:57 16.8 °C 13.9 °C 1020.2 hPa Calm     83 % 0.0 mm
02:02 16.7 °C 14.0 °C 1020.2 hPa Calm     84 % 0.0 mm
02:07 16.5 °C 13.8 °C 1020.2 hPa Calm     84 % 0.0 mm
02:12 16.4 °C 13.7 °C 1020.2 hPa Calm     84 % 0.0 mm
02:17 16.3 °C 13.6 °C 1020.2 hPa Calm     84 % 0.0 mm
02:22 16.4 °C 13.9 °C 1020.2 hPa Calm     85 % 0.0 mm
02:32 16.4 °C 13.9 °C 1020.2 hPa Calm     85 % 0.0 mm
02:37 16.2 °C 13.7 °C 1020.2 hPa Calm     85 % 0.0 mm
02:42 16.1 °C 13.8 °C 1020.2 hPa Calm     86 % 0.0 mm
02:47 16.0 °C 13.7 °C 1020.2 hPa Calm     86 % 0.0 mm
02:57 15.8 °C 13.6 °C 1020.2 hPa Calm     87 % 0.0 mm
03:02 15.7 °C 13.7 °C 1020.2 hPa Calm     88 % 0.0 mm
03:07 15.7 °C 13.7 °C 1020.2 hPa Calm     88 % 0.0 mm
03:12 15.7 °C 13.7 °C 1020.2 hPa Calm     88 % 0.0 mm
03:17 15.6 °C 13.6 °C 1020.2 hPa Calm     88 % 0.0 mm
03:22 15.6 °C 13.6 °C 1020.2 hPa Calm     88 % 0.0 mm
03:32 15.7 °C 13.7 °C 1020.2 hPa Calm     88 % 0.0 mm
03:37 15.9 °C 13.9 °C 1020.2 hPa Calm     88 % 0.0 mm
03:42 15.9 °C 13.9 °C 1020.2 hPa Calm     88 % 0.0 mm
03:52 15.7 °C 13.7 °C 1020.2 hPa Calm     88 % 0.0 mm
03:57 15.8 °C 14.0 °C 1020.2 hPa Calm     89 % 0.0 mm
04:02 15.9 °C 13.9 °C 1020.2 hPa Calm     88 % 0.0 mm
04:07 15.9 °C 13.9 °C 1020.2 hPa Calm     88 % 0.0 mm
04:12 16.1 °C 13.9 °C 1020.2 hPa Calm     87 % 0.0 mm
04:17 16.2 °C 14.0 °C 1020.2 hPa Calm     87 % 0.0 mm
04:22 16.2 °C 13.9 °C 1020.2 hPa Calm     86 % 0.0 mm
04:27 16.2 °C 13.9 °C 1020.2 hPa Calm     86 % 0.0 mm
04:32 16.3 °C 14.1 °C 1020.2 hPa Calm     87 % 0.0 mm
04:37 16.4 °C 14.2 °C 1020.2 hPa Calm     87 % 0.0 mm
04:42 16.3 °C 14.1 °C 1020.2 hPa Calm     87 % 0.0 mm
04:47 16.3 °C 14.3 °C 1020.2 hPa Calm     88 % 0.0 mm
04:52 16.5 °C 14.5 °C 1020.2 hPa Calm     88 % 0.0 mm
04:57 16.7 °C 14.5 °C 1020.2 hPa Calm     87 % 0.0 mm
05:02 16.8 °C 14.8 °C 1020.2 hPa Calm     88 % 0.0 mm
05:12 16.9 °C 14.7 °C 1020.2 hPa Calm     87 % 0.0 mm
05:17 16.9 °C 14.7 °C 1020.2 hPa Calm     87 % 0.0 mm
05:22 17.0 °C 14.8 °C 1020.2 hPa Calm     87 % 0.0 mm
05:32 17.3 °C 15.1 °C 1019.9 hPa NE 4.8 km/h   87 % 0.0 mm
05:37 17.3 °C 15.1 °C 1019.9 hPa NE 3.2 km/h 6.4 km/h 87 % 0.0 mm
05:42 17.4 °C 15.0 °C 1019.9 hPa Calm   6.4 km/h 86 % 0.0 mm
05:47 17.3 °C 14.9 °C 1019.9 hPa Calm   8.0 km/h 86 % 0.0 mm
05:52 17.1 °C 14.9 °C 1019.9 hPa Calm   8.0 km/h 87 % 0.0 mm
05:57 16.9 °C 14.7 °C 1019.9 hPa Calm   3.2 km/h 87 % 0.0 mm
06:02 16.9 °C 14.7 °C 1019.9 hPa NE 1.6 km/h 3.2 km/h 87 % 0.0 mm
06:12 17.0 °C 14.8 °C 1019.9 hPa Calm   1.6 km/h 87 % 0.0 mm
06:17 16.8 °C 14.6 °C 1019.9 hPa Calm   4.8 km/h 87 % 0.0 mm
06:22 16.7 °C 14.7 °C 1019.9 hPa Calm   4.8 km/h 88 % 0.0 mm
06:32 16.6 °C 14.6 °C 1019.9 hPa Calm   3.2 km/h 88 % 0.0 mm
06:42 16.3 °C 14.5 °C 1019.9 hPa Calm   1.6 km/h 89 % 0.0 mm
06:47 16.2 °C 14.4 °C 1019.9 hPa Calm     89 % 0.0 mm
06:52 16.1 °C 14.5 °C 1019.9 hPa Calm     90 % 0.0 mm
06:57 16.1 °C 14.5 °C 1019.9 hPa Calm     90 % 0.0 mm
07:07 16.2 °C 14.7 °C 1019.9 hPa Calm     91 % 0.0 mm
07:12 16.4 °C 14.9 °C 1019.9 hPa Calm     91 % 0.0 mm
07:17 16.5 °C 14.9 °C 1019.9 hPa Calm   1.6 km/h 90 % 0.0 mm
07:22 16.6 °C 15.1 °C 1019.9 hPa Calm   1.6 km/h 91 % 0.0 mm
07:27 16.7 °C 15.1 °C 1020.2 hPa Calm   1.6 km/h 90 % 0.0 mm
07:32 16.9 °C 15.2 °C 1019.9 hPa Calm   1.6 km/h 90 % 0.0 mm
07:42 17.2 °C 15.4 °C 1020.2 hPa NE 1.6 km/h 3.2 km/h 89 % 0.0 mm
07:47 17.4 °C 15.4 °C 1019.9 hPa NE 1.6 km/h 4.8 km/h 88 % 0.0 mm
07:52 17.6 °C 15.6 °C 1020.2 hPa Calm   4.8 km/h 88 % 0.0 mm
07:57 17.7 °C 15.7 °C 1020.2 hPa Calm   4.8 km/h 88 % 0.0 mm
08:02 17.8 °C 15.8 °C 1020.2 hPa Calm   4.8 km/h 88 % 0.0 mm
08:12 18.1 °C 15.9 °C 1020.2 hPa Calm   1.6 km/h 87 % 0.0 mm
08:17 18.2 °C 15.8 °C 1020.2 hPa Calm   3.2 km/h 86 % 0.0 mm
08:22 18.4 °C 16.0 °C 1020.2 hPa NNE 1.6 km/h 3.2 km/h 86 % 0.0 mm
08:32 18.7 °C 16.1 °C 1020.2 hPa Calm   6.4 km/h 85 % 0.0 mm
08:37 18.9 °C 16.1 °C 1020.2 hPa Calm   6.4 km/h 84 % 0.0 mm
08:42 19.1 °C 16.3 °C 1020.2 hPa Calm   6.4 km/h 84 % 0.0 mm
08:47 19.3 °C 16.3 °C 1020.5 hPa East 3.2 km/h 4.8 km/h 83 % 0.0 mm
08:52 19.6 °C 16.4 °C 1020.5 hPa NE 1.6 km/h 4.8 km/h 82 % 0.0 mm
09:02 19.9 °C 16.5 °C 1020.5 hPa Calm   4.8 km/h 81 % 0.0 mm
09:12 20.2 °C 16.6 °C 1020.5 hPa Calm   4.8 km/h 80 % 0.0 mm
09:17 20.4 °C 16.6 °C 1020.5 hPa Calm   1.6 km/h 79 % 0.0 mm
09:22 20.6 °C 16.8 °C 1020.5 hPa Calm   1.6 km/h 79 % 0.0 mm
09:32 21.1 °C 17.1 °C 1020.5 hPa NE 1.6 km/h 4.8 km/h 78 % 0.0 mm
09:42 21.6 °C 17.2 °C 1020.5 hPa SE 1.6 km/h 3.2 km/h 76 % 0.0 mm
09:52 21.9 °C 17.3 °C 1020.5 hPa Calm   4.8 km/h 75 % 0.0 mm
10:02 22.7 °C 17.8 °C 1020.5 hPa Calm   4.8 km/h 74 % 0.0 mm
10:12 23.9 °C 18.1 °C 1020.5 hPa Calm   4.8 km/h 70 % 0.0 mm
10:17 24.8 °C 18.3 °C 1020.5 hPa Calm   4.8 km/h 67 % 0.0 mm
10:22 25.1 °C 18.3 °C 1020.5 hPa East 1.6 km/h 4.8 km/h 66 % 0.0 mm
10:32 25.0 °C 18.2 °C 1020.5 hPa Calm   4.8 km/h 66 % 0.0 mm
10:37 25.4 °C 18.1 °C 1020.5 hPa Calm   4.8 km/h 64 % 0.0 mm
10:42 25.8 °C 18.5 °C 1020.5 hPa Calm   4.8 km/h 64 % 0.0 mm
10:47 26.1 °C 18.0 °C 1020.5 hPa Calm   3.2 km/h 61 % 0.0 mm
10:52 26.1 °C 18.0 °C 1020.5 hPa SE 1.6 km/h 3.2 km/h 61 % 0.0 mm
10:57 26.3 °C 18.4 °C 1020.5 hPa NE 1.6 km/h 4.8 km/h 62 % 0.0 mm
11:02 26.7 °C 18.6 °C 1020.5 hPa WSW 1.6 km/h 4.8 km/h 61 % 0.0 mm
11:07 27.1 °C 18.1 °C 1020.5 hPa WSW 1.6 km/h 6.4 km/h 58 % 0.0 mm
11:12 27.3 °C 18.6 °C 1020.5 hPa East 4.8 km/h 6.4 km/h 59 % 0.0 mm
11:17 27.1 °C 17.6 °C 1020.5 hPa ENE 1.6 km/h 6.4 km/h 56 % 0.0 mm
11:22 26.6 °C 17.7 °C 1020.5 hPa Calm   6.4 km/h 58 % 0.0 mm
11:32 25.7 °C 16.8 °C 1020.5 hPa Calm   6.4 km/h 58 % 0.0 mm
11:37 25.6 °C 17.5 °C 1020.5 hPa Calm   4.8 km/h 61 % 0.0 mm
11:42 25.8 °C 17.2 °C 1020.5 hPa Calm     59 % 0.0 mm
11:47 26.2 °C 17.6 °C 1020.5 hPa Calm   1.6 km/h 59 % 0.0 mm
11:57 26.4 °C 17.5 °C 1020.5 hPa Calm   3.2 km/h 58 % 0.0 mm
12:02 26.7 °C 16.9 °C 1020.5 hPa Calm   3.2 km/h 55 % 0.0 mm
12:12 26.5 °C 16.4 °C 1020.5 hPa NE 3.2 km/h 4.8 km/h 54 % 0.0 mm
12:17 25.9 °C 15.9 °C 1020.5 hPa East 1.6 km/h 4.8 km/h 54 % 0.0 mm
12:22 25.5 °C 16.4 °C 1020.5 hPa Calm   4.8 km/h 57 % 0.0 mm
12:27 25.4 °C 16.5 °C 1020.2 hPa Calm   4.8 km/h 58 % 0.0 mm
12:32 25.4 °C 15.4 °C 1020.2 hPa Calm   6.4 km/h 54 % 0.0 mm
12:37 25.4 °C 14.8 °C 1020.2 hPa East 1.6 km/h 6.4 km/h 52 % 0.0 mm
12:42 25.3 °C 14.7 °C 1020.2 hPa Calm   8.0 km/h 52 % 0.0 mm
12:47 25.3 °C 14.4 °C 1020.2 hPa Calm   8.0 km/h 51 % 0.0 mm
12:57 27.1 °C 17.3 °C 1020.2 hPa Calm   12.9 km/h 55 % 0.0 mm
13:02 27.8 °C 16.1 °C 1020.2 hPa Calm   12.9 km/h 49 % 0.0 mm
13:12 28.4 °C 16.7 °C 1020.2 hPa Calm   6.4 km/h 49 % 0.0 mm
13:17 28.9 °C 16.1 °C 1020.2 hPa ENE 1.6 km/h 6.4 km/h 46 % 0.0 mm
13:22 29.5 °C 16.0 °C 1020.2 hPa Calm   6.4 km/h 44 % 0.0 mm
13:27 29.8 °C 14.7 °C 1020.2 hPa ESE 3.2 km/h 6.4 km/h 40 % 0.0 mm
13:32 29.2 °C 15.0 °C 1020.2 hPa Calm   6.4 km/h 42 % 0.0 mm
13:37 28.6 °C 15.2 °C 1019.9 hPa SW 1.6 km/h 6.4 km/h 44 % 0.0 mm
13:42 28.2 °C 15.5 °C 1019.9 hPa Calm   6.4 km/h 46 % 0.0 mm
13:47 27.7 °C 14.7 °C 1020.2 hPa NE 3.2 km/h 6.4 km/h 45 % 0.0 mm
13:52 26.9 °C 14.6 °C 1020.2 hPa Calm   6.4 km/h 47 % 0.0 mm
13:57 26.7 °C 14.8 °C 1019.9 hPa Calm   9.7 km/h 48 % 0.0 mm
14:02 26.7 °C 14.5 °C 1019.9 hPa Calm   9.7 km/h 47 % 0.0 mm
14:07 26.8 °C 15.5 °C 1019.9 hPa Calm   4.8 km/h 50 % 0.0 mm
14:17 26.6 °C 14.4 °C 1019.9 hPa Calm   6.4 km/h 47 % 0.0 mm
14:22 26.8 °C 14.5 °C 1019.9 hPa Calm   6.4 km/h 47 % 0.0 mm
14:32 27.3 °C 14.7 °C 1019.9 hPa Calm   9.7 km/h 46 % 0.0 mm
14:37 27.3 °C 15.0 °C 1019.9 hPa ENE 1.6 km/h 9.7 km/h 47 % 0.0 mm
14:42 27.4 °C 15.1 °C 1019.9 hPa Calm   6.4 km/h 47 % 0.0 mm
14:47 27.8 °C 15.8 °C 1019.9 hPa Calm   6.4 km/h 48 % 0.0 mm
14:52 28.2 °C 14.8 °C 1019.9 hPa Calm   6.4 km/h 44 % 0.0 mm
14:57 28.4 °C 14.2 °C 1019.9 hPa Calm   4.8 km/h 42 % 0.0 mm
15:02 28.8 °C 15.0 °C 1019.5 hPa Calm   4.8 km/h 43 % 0.0 mm
15:12 28.3 °C 15.2 °C 1019.5 hPa NE 4.8 km/h 9.7 km/h 45 % 0.0 mm
15:17 27.9 °C 15.5 °C 1019.5 hPa Calm   9.7 km/h 47 % 0.0 mm
15:22 27.8 °C 15.1 °C 1019.5 hPa Calm   9.7 km/h 46 % 0.0 mm
15:32 27.9 °C 14.9 °C 1019.5 hPa East 3.2 km/h 6.4 km/h 45 % 0.0 mm
15:42 27.4 °C 15.1 °C 1019.5 hPa Calm   8.0 km/h 47 % 0.0 mm
15:47 27.4 °C 15.1 °C 1019.5 hPa SSE 1.6 km/h 6.4 km/h 47 % 0.0 mm
15:52 27.5 °C 15.2 °C 1019.5 hPa Calm   6.4 km/h 47 % 0.0 mm
15:57 27.6 °C 15.3 °C 1019.5 hPa Calm   6.4 km/h 47 % 0.0 mm
16:02 27.7 °C 15.4 °C 1019.2 hPa Calm   6.4 km/h 47 % 0.0 mm
16:07 27.6 °C 14.6 °C 1019.2 hPa Calm   3.2 km/h 45 % 0.0 mm
16:12 27.4 °C 14.8 °C 1019.2 hPa East 1.6 km/h 3.2 km/h 46 % 0.0 mm
16:17 27.5 °C 14.8 °C 1019.2 hPa Calm   6.4 km/h 46 % 0.0 mm
16:22 27.3 °C 14.3 °C 1019.2 hPa East 3.2 km/h 6.4 km/h 45 % 0.0 mm
16:27 27.3 °C 14.7 °C 1019.2 hPa NE 1.6 km/h 6.4 km/h 46 % 0.0 mm
16:32 27.3 °C 14.7 °C 1019.2 hPa NE 1.6 km/h 6.4 km/h 46 % 0.0 mm
16:37 27.3 °C 15.0 °C 1019.2 hPa Calm   3.2 km/h 47 % 0.0 mm
16:42 27.3 °C 14.3 °C 1019.2 hPa Calm   3.2 km/h 45 % 0.0 mm
16:47 27.4 °C 14.4 °C 1019.2 hPa Calm   3.2 km/h 45 % 0.0 mm
16:52 28.2 °C 14.8 °C 1019.2 hPa Calm   3.2 km/h 44 % 0.0 mm
16:57 28.6 °C 15.2 °C 1019.2 hPa NE 3.2 km/h 3.2 km/h 44 % 0.0 mm
17:07 28.3 °C 14.5 °C 1019.2 hPa Calm   9.7 km/h 43 % 0.0 mm
17:12 28.3 °C 14.9 °C 1019.2 hPa Calm   9.7 km/h 44 % 0.0 mm
17:17 28.3 °C 14.5 °C 1019.2 hPa ENE 3.2 km/h 3.2 km/h 43 % 0.0 mm
17:22 27.9 °C 14.5 °C 1019.2 hPa Calm   3.2 km/h 44 % 0.0 mm
17:32 27.2 °C 15.2 °C 1019.2 hPa Calm   4.8 km/h 48 % 0.0 mm
17:37 27.6 °C 14.9 °C 1018.8 hPa ENE 4.8 km/h 9.7 km/h 46 % 0.0 mm
17:42 27.9 °C 14.5 °C 1018.8 hPa Calm   9.7 km/h 44 % 0.0 mm
17:52 28.6 °C 15.2 °C 1018.8 hPa ENE 1.6 km/h 11.3 km/h 44 % 0.0 mm
17:57 29.0 °C 15.2 °C 1018.8 hPa NE 1.6 km/h 11.3 km/h 43 % 0.0 mm
18:02 29.1 °C 14.9 °C 1018.8 hPa NE 4.8 km/h 11.3 km/h 42 % 0.0 mm
18:07 29.2 °C 15.0 °C 1018.8 hPa ENE 1.6 km/h 8.0 km/h 42 % 0.0 mm
18:12 29.6 °C 15.7 °C 1018.8 hPa Calm   8.0 km/h 43 % 0.0 mm
18:17 29.5 °C 14.9 °C 1018.8 hPa Calm   8.0 km/h 41 % 0.0 mm
18:22 29.6 °C 15.0 °C 1018.8 hPa NE 3.2 km/h 8.0 km/h 41 % 0.0 mm
18:27 29.5 °C 15.2 °C 1018.8 hPa Calm   8.0 km/h 42 % 0.0 mm
18:32 29.9 °C 14.8 °C 1018.8 hPa Calm   6.4 km/h 40 % 0.0 mm
18:37 29.8 °C 14.7 °C 1018.8 hPa NE 1.6 km/h 6.4 km/h 40 % 0.0 mm
18:42 29.5 °C 15.2 °C 1018.8 hPa Calm   6.4 km/h 42 % 0.0 mm
18:52 29.1 °C 14.5 °C 1018.5 hPa Calm   6.4 km/h 41 % 0.0 mm
18:57 28.9 °C 14.7 °C 1018.5 hPa NNE 1.6 km/h 6.4 km/h 42 % 0.0 mm
19:02 28.4 °C 14.2 °C 1018.5 hPa NE 4.8 km/h 6.4 km/h 42 % 0.0 mm
19:12 27.7 °C 14.3 °C 1018.5 hPa Calm   8.0 km/h 44 % 0.0 mm
19:17 27.4 °C 14.1 °C 1018.8 hPa NE 1.6 km/h 8.0 km/h 44 % 0.0 mm
19:22 27.2 °C 13.9 °C 1018.8 hPa Calm   8.0 km/h 44 % 0.0 mm
19:32 26.9 °C 14.3 °C 1018.8 hPa Calm   4.8 km/h 46 % 0.0 mm
19:37 26.8 °C 14.5 °C 1018.8 hPa Calm   4.8 km/h 47 % 0.0 mm
19:42 26.7 °C 14.5 °C 1018.8 hPa Calm   4.8 km/h 47 % 0.0 mm
19:52 26.5 °C 14.3 °C 1018.8 hPa Calm   8.0 km/h 47 % 0.0 mm
19:57 26.3 °C 14.1 °C 1018.8 hPa Calm   8.0 km/h 47 % 0.0 mm
20:02 26.1 °C 14.5 °C 1018.8 hPa Calm   8.0 km/h 49 % 0.0 mm
20:12 25.8 °C 14.3 °C 1018.8 hPa Calm   3.2 km/h 49 % 0.0 mm
20:17 25.6 °C 13.8 °C 1018.8 hPa Calm   3.2 km/h 48 % 0.0 mm
20:22 25.4 °C 14.2 °C 1018.8 hPa Calm   3.2 km/h 50 % 0.0 mm
20:32 25.1 °C 14.3 °C 1018.8 hPa Calm   1.6 km/h 51 % 0.0 mm
20:37 25.1 °C 14.3 °C 1018.8 hPa Calm   4.8 km/h 51 % 0.0 mm
20:42 25.1 °C 14.8 °C 1018.8 hPa Calm   4.8 km/h 53 % 0.0 mm
20:47 24.8 °C 14.6 °C 1018.8 hPa Calm   4.8 km/h 53 % 0.0 mm
20:52 24.6 °C 15.2 °C 1018.8 hPa Calm     56 % 0.0 mm
20:57 24.1 °C 15.0 °C 1018.8 hPa Calm     57 % 0.0 mm
21:02 23.6 °C 14.9 °C 1018.8 hPa Calm     58 % 0.0 mm
21:07 23.2 °C 14.7 °C 1018.8 hPa Calm     59 % 0.0 mm
21:12 22.7 °C 14.5 °C 1018.8 hPa Calm     60 % 0.0 mm
21:17 22.7 °C 14.5 °C 1018.8 hPa Calm     60 % 0.0 mm
21:22 22.6 °C 14.7 °C 1019.2 hPa Calm     61 % 0.0 mm
21:27 22.3 °C 14.4 °C 1019.2 hPa Calm     61 % 0.0 mm
21:32 22.0 °C 14.1 °C 1019.2 hPa Calm     61 % 0.0 mm
21:37 21.7 °C 14.3 °C 1019.2 hPa Calm     63 % 0.0 mm
21:42 21.4 °C 14.5 °C 1019.2 hPa Calm     65 % 0.0 mm
21:47 21.2 °C 14.6 °C 1019.2 hPa Calm     66 % 0.0 mm
21:52 21.0 °C 14.6 °C 1019.5 hPa Calm     67 % 0.0 mm
21:57 20.9 °C 14.5 °C 1019.5 hPa Calm     67 % 0.0 mm
22:02 20.7 °C 14.6 °C 1019.5 hPa Calm     68 % 0.0 mm
22:12 20.0 °C 13.9 °C 1019.9 hPa Calm     68 % 0.0 mm
22:17 19.8 °C 14.2 °C 1019.9 hPa Calm     70 % 0.0 mm
22:22 19.5 °C 14.3 °C 1019.9 hPa Calm     72 % 0.0 mm
22:27 19.2 °C 14.5 °C 1019.9 hPa Calm     74 % 0.0 mm
22:32 19.1 °C 14.4 °C 1019.9 hPa Calm     74 % 0.0 mm
22:37 19.0 °C 14.5 °C 1019.9 hPa Calm     75 % 0.0 mm
22:42 18.9 °C 14.4 °C 1019.9 hPa Calm     75 % 0.0 mm
22:47 18.8 °C 14.3 °C 1019.9 hPa Calm     75 % 0.0 mm
22:52 18.7 °C 14.2 °C 1019.9 hPa Calm     75 % 0.0 mm
22:57 18.6 °C 14.3 °C 1019.9 hPa Calm     76 % 0.0 mm
23:02 18.7 °C 14.4 °C 1019.9 hPa Calm     76 % 0.0 mm
23:12 18.2 °C 14.3 °C 1019.9 hPa Calm     78 % 0.0 mm
23:17 18.0 °C 14.3 °C 1019.9 hPa Calm     79 % 0.0 mm
23:22 17.9 °C 14.4 °C 1019.9 hPa Calm     80 % 0.0 mm
23:27 17.8 °C 14.3 °C 1019.9 hPa Calm     80 % 0.0 mm
23:37 17.9 °C 14.4 °C 1019.9 hPa Calm     80 % 0.0 mm
23:42 17.8 °C 14.3 °C 1019.9 hPa Calm     80 % 0.0 mm
23:47 17.7 °C 14.2 °C 1019.9 hPa Calm     80 % 0.0 mm
23:52 17.6 °C 14.3 °C 1019.9 hPa Calm     81 % 0.0 mm
23:57 17.4 °C 14.3 °C 1019.9 hPa Calm     82 % 0.0 mm
Meteo18
Compliments of Weather Underground - 4 mb

Script developed by  Jim McMurry - jmcmurry@mwt.net Adapted for the template by  Wim van der Kuil - Leuven-Template.eu

You find our weather info also at:

European Weather Network

Weather Underground

Equipment we use:

Weather-station
Davis Vue

Weather-program
Meteohub

Weather-server
Raspberry PI 2 B+

Provider
1 and 1

Davis Vue

Meteohub

Raspberry PI 2 B+

1 and 1